< < Back
Terminal Aerodrome Forecast


Current Version              Previous Versions:   1  2  3  4  5  6  7  8  9  

Terminal Aerodrome Forecast

730
FTUS42 KCHS 251700
TAFCHS
TAF
KCHS 251722Z 2518/2618 33006KT P6SM SKC
     FM252300 27003KT P6SM SKC=

Latest METAR

982
SAUS80 KWBC 252200 RRB
MTRCHS
METAR KCHS 252156Z VRB05KT 10SM CLR 23/07 A2995 RMK AO2 SLP140
T02280072


USA.gov is the U.S. government's official web portal to all federal, state and local government web resources and services.